sensor_id;sensor_type;location;lat;lon;timestamp;P1;durP1;ratioP1;P2;durP2;ratioP2
28926;SDS011;16038;47.692;9.400;2023-07-13T00:01:47;12.27;;;5.88;;
28926;SDS011;16038;47.692;9.400;2023-07-13T00:04:18;9.13;;;4.75;;
28926;SDS011;16038;47.692;9.400;2023-07-13T00:06:45;8.05;;;4.60;;
28926;SDS011;16038;47.692;9.400;2023-07-13T00:09:15;9.93;;;3.88;;
28926;SDS011;16038;47.692;9.400;2023-07-13T00:14:07;9.88;;;4.53;;
28926;SDS011;16038;47.692;9.400;2023-07-13T00:16:35;7.80;;;4.82;;
28926;SDS011;16038;47.692;9.400;2023-07-13T00:19:01;8.60;;;4.22;;
28926;SDS011;16038;47.692;9.400;2023-07-13T00:21:27;9.75;;;4.85;;
28926;SDS011;16038;47.692;9.400;2023-07-13T00:23:53;8.82;;;4.63;;
28926;SDS011;16038;47.692;9.400;2023-07-13T00:26:18;7.47;;;4.50;;
28926;SDS011;16038;47.692;9.400;2023-07-13T00:28:43;7.15;;;4.40;;
28926;SDS011;16038;47.692;9.400;2023-07-13T00:31:10;6.38;;;4.15;;
28926;SDS011;16038;47.692;9.400;2023-07-13T00:33:37;12.80;;;4.90;;
28926;SDS011;16038;47.692;9.400;2023-07-13T00:36:02;8.77;;;5.20;;
28926;SDS011;16038;47.692;9.400;2023-07-13T00:38:29;11.77;;;5.25;;
28926;SDS011;16038;47.692;9.400;2023-07-13T00:40:55;10.30;;;4.63;;
28926;SDS011;16038;47.692;9.400;2023-07-13T00:43:22;10.63;;;4.72;;
28926;SDS011;16038;47.692;9.400;2023-07-13T00:48:23;6.22;;;4.57;;
28926;SDS011;16038;47.692;9.400;2023-07-13T00:50:53;12.97;;;4.70;;
28926;SDS011;16038;47.692;9.400;2023-07-13T00:53:21;9.93;;;4.50;;
28926;SDS011;16038;47.692;9.400;2023-07-13T00:55:49;13.70;;;6.15;;
28926;SDS011;16038;47.692;9.400;2023-07-13T00:58:18;9.50;;;5.65;;
28926;SDS011;16038;47.692;9.400;2023-07-13T01:00:44;13.07;;;6.13;;
28926;SDS011;16038;47.692;9.400;2023-07-13T01:03:11;10.55;;;7.18;;
28926;SDS011;16038;47.692;9.400;2023-07-13T01:05:37;11.68;;;6.88;;
28926;SDS011;16038;47.692;9.400;2023-07-13T01:08:04;14.10;;;6.80;;
28926;SDS011;16038;47.692;9.400;2023-07-13T01:10:31;11.57;;;7.13;;
28926;SDS011;16038;47.692;9.400;2023-07-13T01:13:04;12.48;;;6.78;;
28926;SDS011;16038;47.692;9.400;2023-07-13T01:18:07;10.50;;;6.35;;
28926;SDS011;16038;47.692;9.400;2023-07-13T01:20:35;8.57;;;6.07;;
28926;SDS011;16038;47.692;9.400;2023-07-13T01:23:05;13.43;;;5.45;;
28926;SDS011;16038;47.692;9.400;2023-07-13T01:25:33;12.55;;;5.53;;
28926;SDS011;16038;47.692;9.400;2023-07-13T01:28:00;9.68;;;5.15;;
28926;SDS011;16038;47.692;9.400;2023-07-13T01:30:25;13.52;;;5.93;;
28926;SDS011;16038;47.692;9.400;2023-07-13T01:32:51;10.88;;;5.47;;
28926;SDS011;16038;47.692;9.400;2023-07-13T01:35:16;9.85;;;5.60;;
28926;SDS011;16038;47.692;9.400;2023-07-13T01:37:42;9.23;;;5.30;;
28926;SDS011;16038;47.692;9.400;2023-07-13T01:40:07;8.20;;;4.78;;
28926;SDS011;16038;47.692;9.400;2023-07-13T01:42:33;12.95;;;5.55;;
28926;SDS011;16038;47.692;9.400;2023-07-13T01:44:59;9.23;;;5.85;;
28926;SDS011;16038;47.692;9.400;2023-07-13T01:47:24;13.85;;;6.13;;
28926;SDS011;16038;47.692;9.400;2023-07-13T01:49:51;9.27;;;6.40;;
28926;SDS011;16038;47.692;9.400;2023-07-13T01:52:17;10.15;;;5.70;;
28926;SDS011;16038;47.692;9.400;2023-07-13T01:54:42;8.50;;;5.43;;
28926;SDS011;16038;47.692;9.400;2023-07-13T01:57:08;15.52;;;6.97;;
28926;SDS011;16038;47.692;9.400;2023-07-13T01:59:33;11.18;;;7.78;;
28926;SDS011;16038;47.692;9.400;2023-07-13T02:01:59;10.70;;;7.05;;
28926;SDS011;16038;47.692;9.400;2023-07-13T02:04:24;15.77;;;7.32;;
28926;SDS011;16038;47.692;9.400;2023-07-13T02:06:50;12.10;;;7.50;;
28926;SDS011;16038;47.692;9.400;2023-07-13T02:09:15;16.17;;;8.77;;
28926;SDS011;16038;47.692;9.400;2023-07-13T02:11:40;13.63;;;9.10;;
28926;SDS011;16038;47.692;9.400;2023-07-13T02:14:06;17.27;;;9.02;;
28926;SDS011;16038;47.692;9.400;2023-07-13T02:16:31;16.67;;;8.95;;
28926;SDS011;16038;47.692;9.400;2023-07-13T02:18:56;19.35;;;9.10;;
28926;SDS011;16038;47.692;9.400;2023-07-13T02:21:22;16.80;;;8.70;;
28926;SDS011;16038;47.692;9.400;2023-07-13T02:23:49;14.45;;;8.65;;
28926;SDS011;16038;47.692;9.400;2023-07-13T02:26:15;16.00;;;7.95;;
28926;SDS011;16038;47.692;9.400;2023-07-13T02:28:41;14.30;;;7.75;;
28926;SDS011;16038;47.692;9.400;2023-07-13T02:31:10;10.90;;;6.90;;
28926;SDS011;16038;47.692;9.400;2023-07-13T02:33:38;11.43;;;7.00;;
28926;SDS011;16038;47.692;9.400;2023-07-13T02:36:04;11.98;;;6.88;;
28926;SDS011;16038;47.692;9.400;2023-07-13T02:38:31;14.52;;;7.15;;
28926;SDS011;16038;47.692;9.400;2023-07-13T02:40:59;11.10;;;7.25;;
28926;SDS011;16038;47.692;9.400;2023-07-13T02:43:24;20.13;;;6.35;;
28926;SDS011;16038;47.692;9.400;2023-07-13T02:45:50;10.25;;;6.05;;
28926;SDS011;16038;47.692;9.400;2023-07-13T02:48:16;8.77;;;6.22;;
28926;SDS011;16038;47.692;9.400;2023-07-13T02:50:41;11.65;;;5.90;;
28926;SDS011;16038;47.692;9.400;2023-07-13T02:53:07;10.60;;;6.10;;
28926;SDS011;16038;47.692;9.400;2023-07-13T02:55:32;11.50;;;6.00;;
28926;SDS011;16038;47.692;9.400;2023-07-13T02:57:57;9.38;;;5.82;;
28926;SDS011;16038;47.692;9.400;2023-07-13T03:00:23;12.65;;;6.20;;
28926;SDS011;16038;47.692;9.400;2023-07-13T03:02:49;7.55;;;5.07;;
28926;SDS011;16038;47.692;9.400;2023-07-13T03:05:14;12.32;;;6.25;;
28926;SDS011;16038;47.692;9.400;2023-07-13T03:07:41;10.55;;;5.82;;
28926;SDS011;16038;47.692;9.400;2023-07-13T03:10:07;11.48;;;5.80;;
28926;SDS011;16038;47.692;9.400;2023-07-13T03:12:33;9.55;;;6.00;;
28926;SDS011;16038;47.692;9.400;2023-07-13T03:14:58;10.45;;;6.38;;
28926;SDS011;16038;47.692;9.400;2023-07-13T03:17:24;19.10;;;7.18;;
28926;SDS011;16038;47.692;9.400;2023-07-13T03:19:49;14.93;;;7.68;;
28926;SDS011;16038;47.692;9.400;2023-07-13T03:22:18;13.93;;;7.55;;
28926;SDS011;16038;47.692;9.400;2023-07-13T03:24:45;20.58;;;7.60;;
28926;SDS011;16038;47.692;9.400;2023-07-13T03:27:11;13.23;;;7.75;;
28926;SDS011;16038;47.692;9.400;2023-07-13T03:29:36;12.60;;;6.82;;
28926;SDS011;16038;47.692;9.400;2023-07-13T03:32:01;12.23;;;6.28;;
28926;SDS011;16038;47.692;9.400;2023-07-13T03:34:27;17.02;;;7.78;;
28926;SDS011;16038;47.692;9.400;2023-07-13T03:36:56;16.73;;;7.43;;
28926;SDS011;16038;47.692;9.400;2023-07-13T03:39:21;19.83;;;7.72;;
28926;SDS011;16038;47.692;9.400;2023-07-13T03:41:47;14.98;;;7.53;;
28926;SDS011;16038;47.692;9.400;2023-07-13T03:44:12;14.70;;;7.00;;
28926;SDS011;16038;47.692;9.400;2023-07-13T03:46:38;14.30;;;6.93;;
28926;SDS011;16038;47.692;9.400;2023-07-13T03:49:05;14.75;;;7.93;;
28926;SDS011;16038;47.692;9.400;2023-07-13T03:51:30;16.10;;;7.45;;
28926;SDS011;16038;47.692;9.400;2023-07-13T03:53:56;14.13;;;7.60;;
28926;SDS011;16038;47.692;9.400;2023-07-13T03:56:22;17.65;;;7.53;;
28926;SDS011;16038;47.692;9.400;2023-07-13T03:58:49;14.60;;;7.72;;
28926;SDS011;16038;47.692;9.400;2023-07-13T04:01:16;16.35;;;7.65;;
28926;SDS011;16038;47.692;9.400;2023-07-13T04:03:44;15.65;;;8.95;;
28926;SDS011;16038;47.692;9.400;2023-07-13T04:06:15;13.55;;;7.95;;
28926;SDS011;16038;47.692;9.400;2023-07-13T04:08:46;10.15;;;7.28;;
28926;SDS011;16038;47.692;9.400;2023-07-13T04:11:13;17.10;;;8.45;;
28926;SDS011;16038;47.692;9.400;2023-07-13T04:13:39;16.98;;;8.05;;
28926;SDS011;16038;47.692;9.400;2023-07-13T04:16:04;13.07;;;7.50;;
28926;SDS011;16038;47.692;9.400;2023-07-13T04:18:30;13.63;;;7.60;;
28926;SDS011;16038;47.692;9.400;2023-07-13T04:20:55;14.40;;;7.53;;
28926;SDS011;16038;47.692;9.400;2023-07-13T04:23:21;14.85;;;7.63;;
28926;SDS011;16038;47.692;9.400;2023-07-13T04:25:46;13.50;;;7.90;;
28926;SDS011;16038;47.692;9.400;2023-07-13T04:28:14;10.68;;;7.22;;
28926;SDS011;16038;47.692;9.400;2023-07-13T04:30:42;12.63;;;7.20;;
28926;SDS011;16038;47.692;9.400;2023-07-13T04:33:08;11.77;;;7.30;;
28926;SDS011;16038;47.692;9.400;2023-07-13T04:35:34;12.13;;;6.80;;
28926;SDS011;16038;47.692;9.400;2023-07-13T04:38:00;12.85;;;6.97;;
28926;SDS011;16038;47.692;9.400;2023-07-13T04:40:26;13.57;;;7.80;;
28926;SDS011;16038;47.692;9.400;2023-07-13T04:42:53;14.80;;;7.20;;
28926;SDS011;16038;47.692;9.400;2023-07-13T04:45:18;9.75;;;6.57;;
28926;SDS011;16038;47.692;9.400;2023-07-13T04:47:44;13.23;;;7.22;;
28926;SDS011;16038;47.692;9.400;2023-07-13T04:50:12;10.68;;;7.10;;
28926;SDS011;16038;47.692;9.400;2023-07-13T04:52:43;14.02;;;7.03;;
28926;SDS011;16038;47.692;9.400;2023-07-13T04:55:09;10.07;;;6.38;;
28926;SDS011;16038;47.692;9.400;2023-07-13T04:57:34;11.20;;;6.07;;
28926;SDS011;16038;47.692;9.400;2023-07-13T05:00:00;14.50;;;6.78;;
28926;SDS011;16038;47.692;9.400;2023-07-13T05:02:26;13.80;;;7.57;;
28926;SDS011;16038;47.692;9.400;2023-07-13T05:04:53;10.35;;;7.00;;
28926;SDS011;16038;47.692;9.400;2023-07-13T05:07:18;13.43;;;6.55;;
28926;SDS011;16038;47.692;9.400;2023-07-13T05:09:44;11.23;;;6.47;;
28926;SDS011;16038;47.692;9.400;2023-07-13T05:12:09;15.98;;;7.53;;
28926;SDS011;16038;47.692;9.400;2023-07-13T05:14:35;13.60;;;6.82;;
28926;SDS011;16038;47.692;9.400;2023-07-13T05:17:01;17.48;;;7.63;;
28926;SDS011;16038;47.692;9.400;2023-07-13T05:19:27;11.68;;;7.20;;
28926;SDS011;16038;47.692;9.400;2023-07-13T05:21:53;10.88;;;7.07;;
28926;SDS011;16038;47.692;9.400;2023-07-13T05:24:18;11.82;;;8.00;;
28926;SDS011;16038;47.692;9.400;2023-07-13T05:26:44;14.10;;;6.97;;
28926;SDS011;16038;47.692;9.400;2023-07-13T05:29:09;14.80;;;8.52;;
28926;SDS011;16038;47.692;9.400;2023-07-13T05:31:35;12.77;;;8.32;;
28926;SDS011;16038;47.692;9.400;2023-07-13T05:34:01;11.75;;;8.70;;
28926;SDS011;16038;47.692;9.400;2023-07-13T05:36:27;14.95;;;8.48;;
28926;SDS011;16038;47.692;9.400;2023-07-13T05:38:52;11.38;;;8.00;;
28926;SDS011;16038;47.692;9.400;2023-07-13T05:41:17;10.55;;;7.25;;
28926;SDS011;16038;47.692;9.400;2023-07-13T05:43:43;12.20;;;7.30;;
28926;SDS011;16038;47.692;9.400;2023-07-13T05:46:09;11.70;;;6.95;;
28926;SDS011;16038;47.692;9.400;2023-07-13T05:48:34;15.27;;;7.18;;
28926;SDS011;16038;47.692;9.400;2023-07-13T05:51:00;14.02;;;7.00;;
28926;SDS011;16038;47.692;9.400;2023-07-13T05:53:26;9.82;;;5.85;;
28926;SDS011;16038;47.692;9.400;2023-07-13T05:55:53;15.25;;;5.65;;
28926;SDS011;16038;47.692;9.400;2023-07-13T05:58:20;8.15;;;4.60;;
28926;SDS011;16038;47.692;9.400;2023-07-13T06:00:46;10.18;;;4.85;;
28926;SDS011;16038;47.692;9.400;2023-07-13T06:03:12;8.80;;;4.95;;
28926;SDS011;16038;47.692;9.400;2023-07-13T06:05:38;6.70;;;4.40;;
28926;SDS011;16038;47.692;9.400;2023-07-13T06:08:04;9.30;;;5.30;;
28926;SDS011;16038;47.692;9.400;2023-07-13T06:10:34;10.52;;;5.90;;
28926;SDS011;16038;47.692;9.400;2023-07-13T06:13:01;11.68;;;4.95;;
28926;SDS011;16038;47.692;9.400;2023-07-13T06:15:27;13.25;;;5.68;;
28926;SDS011;16038;47.692;9.400;2023-07-13T06:17:52;16.42;;;5.85;;
28926;SDS011;16038;47.692;9.400;2023-07-13T06:20:18;9.98;;;4.78;;
28926;SDS011;16038;47.692;9.400;2023-07-13T06:22:43;10.13;;;4.82;;
28926;SDS011;16038;47.692;9.400;2023-07-13T06:25:08;9.07;;;5.53;;
28926;SDS011;16038;47.692;9.400;2023-07-13T06:27:34;9.82;;;5.10;;
28926;SDS011;16038;47.692;9.400;2023-07-13T06:29:59;8.88;;;4.88;;
28926;SDS011;16038;47.692;9.400;2023-07-13T06:32:25;8.02;;;4.93;;
28926;SDS011;16038;47.692;9.400;2023-07-13T06:34:50;8.65;;;5.50;;
28926;SDS011;16038;47.692;9.400;2023-07-13T06:37:17;10.60;;;5.53;;
28926;SDS011;16038;47.692;9.400;2023-07-13T06:39:42;10.60;;;5.25;;
28926;SDS011;16038;47.692;9.400;2023-07-13T06:42:08;8.90;;;5.40;;
28926;SDS011;16038;47.692;9.400;2023-07-13T06:44:33;11.90;;;6.45;;
28926;SDS011;16038;47.692;9.400;2023-07-13T06:46:59;10.98;;;5.95;;
28926;SDS011;16038;47.692;9.400;2023-07-13T06:49:24;11.80;;;5.68;;
28926;SDS011;16038;47.692;9.400;2023-07-13T06:51:50;11.15;;;6.20;;
28926;SDS011;16038;47.692;9.400;2023-07-13T06:54:15;11.35;;;5.70;;
28926;SDS011;16038;47.692;9.400;2023-07-13T06:56:40;10.73;;;6.13;;
28926;SDS011;16038;47.692;9.400;2023-07-13T06:59:06;8.68;;;5.03;;
28926;SDS011;16038;47.692;9.400;2023-07-13T07:01:31;16.38;;;5.90;;
28926;SDS011;16038;47.692;9.400;2023-07-13T07:03:57;12.27;;;5.78;;
28926;SDS011;16038;47.692;9.400;2023-07-13T07:06:22;13.40;;;6.05;;
28926;SDS011;16038;47.692;9.400;2023-07-13T07:08:49;10.50;;;5.68;;
28926;SDS011;16038;47.692;9.400;2023-07-13T07:11:17;8.35;;;4.43;;
28926;SDS011;16038;47.692;9.400;2023-07-13T07:13:44;10.68;;;4.55;;
28926;SDS011;16038;47.692;9.400;2023-07-13T07:16:10;7.63;;;3.55;;
28926;SDS011;16038;47.692;9.400;2023-07-13T07:18:36;6.60;;;2.97;;
28926;SDS011;16038;47.692;9.400;2023-07-13T07:21:01;11.63;;;2.70;;
28926;SDS011;16038;47.692;9.400;2023-07-13T07:23:27;8.57;;;3.08;;
28926;SDS011;16038;47.692;9.400;2023-07-13T07:25:52;8.27;;;2.42;;
28926;SDS011;16038;47.692;9.400;2023-07-13T07:28:18;7.90;;;2.85;;
28926;SDS011;16038;47.692;9.400;2023-07-13T07:30:47;7.43;;;2.45;;
28926;SDS011;16038;47.692;9.400;2023-07-13T07:33:13;5.70;;;2.58;;
28926;SDS011;16038;47.692;9.400;2023-07-13T07:35:39;6.57;;;2.33;;
28926;SDS011;16038;47.692;9.400;2023-07-13T07:38:05;6.35;;;1.88;;
28926;SDS011;16038;47.692;9.400;2023-07-13T07:40:30;4.93;;;2.50;;
28926;SDS011;16038;47.692;9.400;2023-07-13T07:42:57;9.30;;;2.88;;
28926;SDS011;16038;47.692;9.400;2023-07-13T07:45:23;12.90;;;2.92;;
28926;SDS011;16038;47.692;9.400;2023-07-13T07:47:48;8.95;;;1.98;;
28926;SDS011;16038;47.692;9.400;2023-07-13T07:50:14;10.27;;;2.50;;
28926;SDS011;16038;47.692;9.400;2023-07-13T07:52:39;5.10;;;2.28;;
28926;SDS011;16038;47.692;9.400;2023-07-13T07:55:05;11.93;;;2.63;;
28926;SDS011;16038;47.692;9.400;2023-07-13T07:57:32;13.52;;;3.72;;
28926;SDS011;16038;47.692;9.400;2023-07-13T07:59:57;7.50;;;2.25;;
28926;SDS011;16038;47.692;9.400;2023-07-13T08:02:24;5.82;;;2.30;;
28926;SDS011;16038;47.692;9.400;2023-07-13T08:04:49;7.72;;;2.70;;
28926;SDS011;16038;47.692;9.400;2023-07-13T08:07:15;14.13;;;3.47;;
28926;SDS011;16038;47.692;9.400;2023-07-13T08:09:40;7.22;;;2.60;;
28926;SDS011;16038;47.692;9.400;2023-07-13T08:12:06;11.13;;;2.55;;
28926;SDS011;16038;47.692;9.400;2023-07-13T08:14:32;12.50;;;2.15;;
28926;SDS011;16038;47.692;9.400;2023-07-13T08:16:57;7.85;;;2.15;;
28926;SDS011;16038;47.692;9.400;2023-07-13T08:19:24;6.97;;;2.25;;
28926;SDS011;16038;47.692;9.400;2023-07-13T08:21:49;9.20;;;2.30;;
28926;SDS011;16038;47.692;9.400;2023-07-13T08:24:15;5.72;;;1.90;;
28926;SDS011;16038;47.692;9.400;2023-07-13T08:26:40;4.38;;;1.83;;
28926;SDS011;16038;47.692;9.400;2023-07-13T08:29:06;6.13;;;2.00;;
28926;SDS011;16038;47.692;9.400;2023-07-13T08:31:31;5.28;;;1.85;;
28926;SDS011;16038;47.692;9.400;2023-07-13T08:33:56;12.68;;;2.83;;
28926;SDS011;16038;47.692;9.400;2023-07-13T08:36:22;4.40;;;2.20;;
28926;SDS011;16038;47.692;9.400;2023-07-13T08:38:47;5.97;;;2.13;;
28926;SDS011;16038;47.692;9.400;2023-07-13T08:41:16;6.30;;;1.95;;
28926;SDS011;16038;47.692;9.400;2023-07-13T08:43:46;4.03;;;1.70;;
28926;SDS011;16038;47.692;9.400;2023-07-13T08:46:17;9.95;;;2.33;;
28926;SDS011;16038;47.692;9.400;2023-07-13T08:48:49;6.25;;;2.30;;
28926;SDS011;16038;47.692;9.400;2023-07-13T08:53:54;6.80;;;2.03;;
28926;SDS011;16038;47.692;9.400;2023-07-13T08:56:24;6.32;;;1.70;;
28926;SDS011;16038;47.692;9.400;2023-07-13T08:58:54;5.03;;;1.65;;
28926;SDS011;16038;47.692;9.400;2023-07-13T09:01:30;7.18;;;1.58;;
28926;SDS011;16038;47.692;9.400;2023-07-13T09:04:16;4.95;;;1.20;;
28926;SDS011;16038;47.692;9.400;2023-07-13T09:06:55;5.00;;;1.10;;
28926;SDS011;16038;47.692;9.400;2023-07-13T09:12:02;4.95;;;1.30;;
28926;SDS011;16038;47.692;9.400;2023-07-13T09:14:41;5.05;;;1.42;;
28926;SDS011;16038;47.692;9.400;2023-07-13T09:17:19;6.25;;;1.40;;
28926;SDS011;16038;47.692;9.400;2023-07-13T09:19:52;3.30;;;1.42;;
28926;SDS011;16038;47.692;9.400;2023-07-13T09:22:24;5.35;;;1.35;;
28926;SDS011;16038;47.692;9.400;2023-07-13T09:24:55;8.05;;;1.48;;
28926;SDS011;16038;47.692;9.400;2023-07-13T09:27:39;4.88;;;1.17;;
28926;SDS011;16038;47.692;9.400;2023-07-13T09:32:47;5.72;;;1.13;;
28926;SDS011;16038;47.692;9.400;2023-07-13T09:35:17;4.22;;;1.17;;
28926;SDS011;16038;47.692;9.400;2023-07-13T09:37:46;4.95;;;1.00;;
28926;SDS011;16038;47.692;9.400;2023-07-13T09:40:24;3.83;;;0.98;;
28926;SDS011;16038;47.692;9.400;2023-07-13T09:42:55;4.03;;;1.20;;
28926;SDS011;16038;47.692;9.400;2023-07-13T09:45:30;3.22;;;1.17;;
28926;SDS011;16038;47.692;9.400;2023-07-13T09:48:00;2.78;;;1.15;;
28926;SDS011;16038;47.692;9.400;2023-07-13T09:50:30;5.30;;;1.17;;
28926;SDS011;16038;47.692;9.400;2023-07-13T09:52:55;3.53;;;0.80;;
28926;SDS011;16038;47.692;9.400;2023-07-13T09:55:26;2.35;;;1.00;;
28926;SDS011;16038;47.692;9.400;2023-07-13T09:57:55;7.35;;;1.20;;
28926;SDS011;16038;47.692;9.400;2023-07-13T10:00:25;6.13;;;1.08;;
28926;SDS011;16038;47.692;9.400;2023-07-13T10:05:42;2.55;;;1.08;;
28926;SDS011;16038;47.692;9.400;2023-07-13T10:08:28;4.57;;;1.13;;
28926;SDS011;16038;47.692;9.400;2023-07-13T10:11:02;5.05;;;1.40;;
28926;SDS011;16038;47.692;9.400;2023-07-13T10:13:59;5.00;;;1.30;;
28926;SDS011;16038;47.692;9.400;2023-07-13T10:16:31;12.52;;;1.90;;
28926;SDS011;16038;47.692;9.400;2023-07-13T10:19:00;6.75;;;1.38;;
28926;SDS011;16038;47.692;9.400;2023-07-13T10:21:52;4.50;;;1.63;;
28926;SDS011;16038;47.692;9.400;2023-07-13T10:24:21;6.07;;;1.27;;
28926;SDS011;16038;47.692;9.400;2023-07-13T10:29:32;3.25;;;1.33;;
28926;SDS011;16038;47.692;9.400;2023-07-13T10:32:03;6.68;;;1.52;;
28926;SDS011;16038;47.692;9.400;2023-07-13T10:34:34;4.97;;;1.60;;
28926;SDS011;16038;47.692;9.400;2023-07-13T10:37:00;5.70;;;1.73;;
28926;SDS011;16038;47.692;9.400;2023-07-13T10:39:27;7.43;;;1.70;;
28926;SDS011;16038;47.692;9.400;2023-07-13T10:41:54;6.15;;;1.63;;
28926;SDS011;16038;47.692;9.400;2023-07-13T10:44:24;6.30;;;1.77;;
28926;SDS011;16038;47.692;9.400;2023-07-13T10:46:54;3.70;;;1.45;;
28926;SDS011;16038;47.692;9.400;2023-07-13T10:49:23;8.07;;;1.65;;
28926;SDS011;16038;47.692;9.400;2023-07-13T10:51:51;9.85;;;1.80;;
28926;SDS011;16038;47.692;9.400;2023-07-13T10:54:19;8.93;;;1.88;;
28926;SDS011;16038;47.692;9.400;2023-07-13T10:56:53;5.47;;;1.65;;
28926;SDS011;16038;47.692;9.400;2023-07-13T10:59:34;4.78;;;1.90;;
28926;SDS011;16038;47.692;9.400;2023-07-13T11:04:31;5.63;;;1.90;;
28926;SDS011;16038;47.692;9.400;2023-07-13T11:10:45;4.57;;;1.70;;
28926;SDS011;16038;47.692;9.400;2023-07-13T11:13:36;7.20;;;1.63;;
28926;SDS011;16038;47.692;9.400;2023-07-13T11:18:49;6.82;;;1.90;;
28926;SDS011;16038;47.692;9.400;2023-07-13T11:22:01;6.80;;;1.75;;
28926;SDS011;16038;47.692;9.400;2023-07-13T11:24:48;4.55;;;1.60;;
28926;SDS011;16038;47.692;9.400;2023-07-13T11:27:35;6.35;;;1.70;;
28926;SDS011;16038;47.692;9.400;2023-07-13T11:32:51;5.65;;;2.05;;
28926;SDS011;16038;47.692;9.400;2023-07-13T11:35:30;7.65;;;2.20;;
28926;SDS011;16038;47.692;9.400;2023-07-13T11:37:58;10.57;;;2.70;;
28926;SDS011;16038;47.692;9.400;2023-07-13T11:40:25;3.47;;;1.75;;
28926;SDS011;16038;47.692;9.400;2023-07-13T11:42:58;3.17;;;1.90;;
28926;SDS011;16038;47.692;9.400;2023-07-13T11:45:24;8.27;;;2.35;;
28926;SDS011;16038;47.692;9.400;2023-07-13T11:47:50;5.43;;;2.10;;
28926;SDS011;16038;47.692;9.400;2023-07-13T11:50:19;7.07;;;2.00;;
28926;SDS011;16038;47.692;9.400;2023-07-13T11:52:46;5.20;;;1.58;;
28926;SDS011;16038;47.692;9.400;2023-07-13T11:55:15;5.00;;;1.70;;
28926;SDS011;16038;47.692;9.400;2023-07-13T11:57:47;7.53;;;1.70;;
28926;SDS011;16038;47.692;9.400;2023-07-13T12:00:17;7.15;;;1.63;;
28926;SDS011;16038;47.692;9.400;2023-07-13T12:02:47;9.25;;;2.20;;
28926;SDS011;16038;47.692;9.400;2023-07-13T12:05:18;4.80;;;1.77;;
28926;SDS011;16038;47.692;9.400;2023-07-13T12:07:45;6.95;;;1.95;;
28926;SDS011;16038;47.692;9.400;2023-07-13T12:12:37;5.88;;;2.58;;
28926;SDS011;16038;47.692;9.400;2023-07-13T12:15:11;4.63;;;1.73;;
28926;SDS011;16038;47.692;9.400;2023-07-13T12:17:37;5.38;;;2.20;;
28926;SDS011;16038;47.692;9.400;2023-07-13T12:20:04;4.03;;;2.03;;
28926;SDS011;16038;47.692;9.400;2023-07-13T12:22:47;6.68;;;2.10;;
28926;SDS011;16038;47.692;9.400;2023-07-13T12:25:14;7.22;;;2.05;;
28926;SDS011;16038;47.692;9.400;2023-07-13T12:27:41;2.67;;;1.70;;
28926;SDS011;16038;47.692;9.400;2023-07-13T12:30:29;4.40;;;1.80;;
28926;SDS011;16038;47.692;9.400;2023-07-13T12:33:07;3.53;;;1.70;;
28926;SDS011;16038;47.692;9.400;2023-07-13T12:35:54;6.60;;;2.10;;
28926;SDS011;16038;47.692;9.400;2023-07-13T12:38:21;5.43;;;2.10;;
28926;SDS011;16038;47.692;9.400;2023-07-13T12:40:49;4.80;;;1.83;;
28926;SDS011;16038;47.692;9.400;2023-07-13T12:43:16;6.15;;;1.77;;
28926;SDS011;16038;47.692;9.400;2023-07-13T12:48:23;8.93;;;4.72;;
28926;SDS011;16038;47.692;9.400;2023-07-13T12:50:49;5.13;;;2.10;;
28926;SDS011;16038;47.692;9.400;2023-07-13T12:53:17;4.07;;;2.03;;
28926;SDS011;16038;47.692;9.400;2023-07-13T12:55:55;3.50;;;1.80;;
28926;SDS011;16038;47.692;9.400;2023-07-13T12:58:28;3.60;;;2.00;;
28926;SDS011;16038;47.692;9.400;2023-07-13T13:01:05;5.40;;;1.95;;
28926;SDS011;16038;47.692;9.400;2023-07-13T13:03:37;3.28;;;1.67;;
28926;SDS011;16038;47.692;9.400;2023-07-13T13:06:05;4.25;;;1.65;;
28926;SDS011;16038;47.692;9.400;2023-07-13T13:08:45;5.68;;;2.03;;
28926;SDS011;16038;47.692;9.400;2023-07-13T13:11:14;3.87;;;2.20;;
28926;SDS011;16038;47.692;9.400;2023-07-13T13:13:41;2.97;;;1.83;;
28926;SDS011;16038;47.692;9.400;2023-07-13T13:16:20;4.22;;;1.90;;
28926;SDS011;16038;47.692;9.400;2023-07-13T13:18:48;5.65;;;1.73;;
28926;SDS011;16038;47.692;9.400;2023-07-13T13:21:15;5.10;;;1.88;;
28926;SDS011;16038;47.692;9.400;2023-07-13T13:23:41;5.07;;;2.33;;
28926;SDS011;16038;47.692;9.400;2023-07-13T13:26:10;8.13;;;2.28;;
28926;SDS011;16038;47.692;9.400;2023-07-13T13:28:36;5.93;;;1.92;;
28926;SDS011;16038;47.692;9.400;2023-07-13T13:31:01;3.97;;;1.83;;
28926;SDS011;16038;47.692;9.400;2023-07-13T13:33:27;5.90;;;1.90;;
28926;SDS011;16038;47.692;9.400;2023-07-13T13:35:52;5.93;;;2.03;;
28926;SDS011;16038;47.692;9.400;2023-07-13T13:38:20;8.00;;;1.92;;
28926;SDS011;16038;47.692;9.400;2023-07-13T13:40:48;3.38;;;1.70;;
28926;SDS011;16038;47.692;9.400;2023-07-13T13:43:15;4.53;;;2.13;;
28926;SDS011;16038;47.692;9.400;2023-07-13T13:45:42;4.75;;;2.40;;
28926;SDS011;16038;47.692;9.400;2023-07-13T13:48:17;6.15;;;2.08;;
28926;SDS011;16038;47.692;9.400;2023-07-13T13:50:44;6.13;;;1.70;;
28926;SDS011;16038;47.692;9.400;2023-07-13T13:53:10;3.40;;;1.60;;
28926;SDS011;16038;47.692;9.400;2023-07-13T13:55:40;3.45;;;1.58;;
28926;SDS011;16038;47.692;9.400;2023-07-13T13:58:07;6.15;;;1.80;;
28926;SDS011;16038;47.692;9.400;2023-07-13T14:00:34;2.85;;;1.95;;
28926;SDS011;16038;47.692;9.400;2023-07-13T14:03:00;4.65;;;2.10;;
28926;SDS011;16038;47.692;9.400;2023-07-13T14:05:26;3.47;;;2.00;;
28926;SDS011;16038;47.692;9.400;2023-07-13T14:07:52;3.83;;;1.73;;
28926;SDS011;16038;47.692;9.400;2023-07-13T14:10:19;4.80;;;1.70;;
28926;SDS011;16038;47.692;9.400;2023-07-13T14:12:45;8.18;;;2.42;;
28926;SDS011;16038;47.692;9.400;2023-07-13T14:15:18;8.30;;;2.25;;
28926;SDS011;16038;47.692;9.400;2023-07-13T14:17:49;5.88;;;1.70;;
28926;SDS011;16038;47.692;9.400;2023-07-13T14:20:15;3.72;;;1.50;;
28926;SDS011;16038;47.692;9.400;2023-07-13T14:22:42;3.47;;;1.83;;
28926;SDS011;16038;47.692;9.400;2023-07-13T14:25:15;3.65;;;1.60;;
28926;SDS011;16038;47.692;9.400;2023-07-13T14:27:41;4.05;;;1.83;;
28926;SDS011;16038;47.692;9.400;2023-07-13T14:30:21;2.83;;;1.48;;
28926;SDS011;16038;47.692;9.400;2023-07-13T14:32:47;5.60;;;1.60;;
28926;SDS011;16038;47.692;9.400;2023-07-13T14:35:15;4.90;;;1.77;;
28926;SDS011;16038;47.692;9.400;2023-07-13T14:37:42;4.35;;;1.55;;
28926;SDS011;16038;47.692;9.400;2023-07-13T14:40:16;4.97;;;2.15;;
28926;SDS011;16038;47.692;9.400;2023-07-13T14:42:46;4.28;;;2.08;;
28926;SDS011;16038;47.692;9.400;2023-07-13T14:45:16;4.32;;;1.98;;
28926;SDS011;16038;47.692;9.400;2023-07-13T14:47:43;6.68;;;2.85;;
28926;SDS011;16038;47.692;9.400;2023-07-13T14:50:19;3.90;;;1.80;;
28926;SDS011;16038;47.692;9.400;2023-07-13T14:52:55;5.93;;;1.90;;
28926;SDS011;16038;47.692;9.400;2023-07-13T14:55:20;2.88;;;1.80;;
28926;SDS011;16038;47.692;9.400;2023-07-13T14:57:48;2.42;;;1.60;;
28926;SDS011;16038;47.692;9.400;2023-07-13T15:00:15;4.32;;;1.95;;
28926;SDS011;16038;47.692;9.400;2023-07-13T15:02:43;2.90;;;1.85;;
28926;SDS011;16038;47.692;9.400;2023-07-13T15:07:46;6.22;;;2.28;;
28926;SDS011;16038;47.692;9.400;2023-07-13T15:10:14;5.10;;;1.63;;
28926;SDS011;16038;47.692;9.400;2023-07-13T15:12:42;3.58;;;2.00;;
28926;SDS011;16038;47.692;9.400;2023-07-13T15:15:07;6.97;;;1.80;;
28926;SDS011;16038;47.692;9.400;2023-07-13T15:20:03;5.47;;;1.92;;
28926;SDS011;16038;47.692;9.400;2023-07-13T15:22:50;5.00;;;2.20;;
28926;SDS011;16038;47.692;9.400;2023-07-13T15:25:18;5.63;;;2.05;;
28926;SDS011;16038;47.692;9.400;2023-07-13T15:27:46;3.50;;;1.95;;
28926;SDS011;16038;47.692;9.400;2023-07-13T15:30:11;6.80;;;2.33;;
28926;SDS011;16038;47.692;9.400;2023-07-13T15:32:38;5.80;;;2.15;;